Relevés horaires Matro (Suisse)


Relevés horaires à Matro - Dimanche 10 Mars 2019
Heure UTC1 Température [°C] Vent [km/h] Hum. [%] Pres.4 [hPa] Visi. [Km] Nébu. [octa] Préc.5 [mm] Cond.
2m. Res. Ros. Dir.2 Vit. Moy. Raf.3
23:00 -1.9 -9.5 -11.1 NNO 35.2 -- 66.7 49 850(-0.2/3h) -- -- -- --
22:00 -1.3 -9.5 -10.4 NO 44.4 -- 64.8 50 850(0.2/3h) -- -- -- --
21:00 -1.1 -8.1 -8.7 NO 31.5 -- 74.1 56 850(0.5/3h) -- -- -- --
20:00 -0.2 -7.7 -9.6 NO 40.7 -- 74.1 49 850(0.6/3h) -- -- -- --
19:00 1.1 -6 -9.3 ONO 40.7 -- 64.8 46 850(0.4/3h) -- -- -- --
18:00 1.5 -5.6 -7.7 NO 42.6 -- 72.2 50 850(0.0/3h) -- -- -- --
17:00 2.0 -5.3 -6.5 ONO 48.2 -- 72.2 53 850(-0.7/3h) -- -- -- --
16:00 3.0 -3.2 -5.9 ONO 37.0 -- 66.7 52 850(-0.7/3h) -- -- -- --
15:00 3.0 -0.7 -1.5 OSO 14.8 -- 33.3 72 850(-1.0/3h) -- -- -- --
14:00 2.0 -0.2 -0.4 S 7.4 -- 16.7 84 850(-1.2/3h) -- -- -- --
13:00 1.7 -0.6 -1.7 ONO 7.4 -- 16.7 78 850(-1.3/3h) -- -- -- --
12:00 2.1 0.5 -1.7 S 5.6 -- 22.2 76 850(-1.6/3h) -- -- -- --
11:00 0.6 0.6 -2.9 SO 3.7 -- 16.7 77 850(-0.5/3h) -- -- -- --
10:00 1.1 1.1 -4.0 ESE 3.7 -- 22.2 69 850(-0.3/3h) -- -- -- --
09:00 0.8 -3 -4.3 SSE 13.0 -- 22.2 69 850(-0.2/3h) -- -- -- --
08:00 0.5 -2.5 -4.4 SSE 9.3 -- 14.8 70 850(-0.4/3h) -- -- -- --
07:00 0.4 -2.1 -5.8 ENE 7.4 -- 20.4 63 850(-0.5/3h) -- -- -- --
06:00 0.1 -1.7 -5.5 ESE 5.6 -- 20.4 66 850(-0.1/3h) -- -- -- --
05:00 0.7 -2.3 -8.3 SSE 9.3 -- 16.7 51 850(-1.3/3h) -- -- -- --
04:00 1.2 -0.5 -8.3 ENE 5.6 -- 13.0 49 850(-1.5/3h) -- -- -- --
03:00 1.3 -1 -5.6 SSE 7.4 -- 18.5 60 850(-1.6/3h) -- -- -- --
02:00 1.6 -0 -8.9 S 5.6 -- 13.0 45 850(-1.0/3h) -- -- -- --
01:00 1.1 -1.3 -9.5 NO 7.4 -- 18.5 45 850(-0.7/3h) -- -- -- --
00:00 1.0 -2.4 -12.5 NNO 11.1 -- 59.3 36 850(-0.4/3h) -- -- -- --

1 Coordinated Universal Time. Actuellement il est 05:00 locale et 03:00 UTC.

2 Le vent souffle depuis la direction indiquée vers la direction oposée.

3 Les rafales max. sont disponible 40 min après l'heure du relevé.

4 Pour les stations d'altitude (plus de 600m) le géopotentiel du niveau le plus proche de la pression obligatoire est indiqué.

5 Les stations disposant d'un diffuseur peuvent indiquer "trace". Cela signifie que des précipitations ont touchés le sol mais que la quantité est inférieure à 0.1 mm.

Copyright

Les données affichées sur cette page sont la propriété exclusive de Météo Suisse.

Récapitulatif de la journée
Température [°C] Vent [km/h] Ensoleillement4 [h] Precipitations totale5 [mm] Pression [Hpa]
Min1 Max.2 Moy.3 Max. Min Max.
0.4 3.4 0 74.1 5 h 6 min 0 850.0 850.0

1 Température minimale relevée entre 18:00 UTC la veille et 18:00 UTC le jour donné.

2 Température maximale relevée entre 06:00 UTC le jour donné et 06:00 UTC le lendemain.

3 Vent moyen de la journée basé sur les relevés horaires.

4 Ensoleillement en heures relevé entre 06:00 UTC la veille et 06:00 UTC le jour donné.

5 Précipitations totales tombées entre 06:00 UTC la jour donné et 06:00 UTC le lendemain.

Graphiques horaires